Time,TemperatureF,DewpointF,PressureIn,WindDirection,WindDirectionDegrees,WindSpeedMPH,WindSpeedGustMPH,Humidity,HourlyPrecipIn,Conditions,Clouds,dailyrainin,SoftwareType,DateUTC
2013-05-10 00:04:00,59.3,53.0,29.98,SSE,161,0.0,0.0,79,0.00,,,0.00,weatherlink.com 1.10,2013-05-10 04:04:00,
2013-05-10 00:19:00,59.5,53.0,29.98,ESE,122,1.0,2.0,79,0.00,,,0.00,weatherlink.com 1.10,2013-05-10 04:19:00,
2013-05-10 00:34:00,59.5,53.0,29.98,East,90,1.0,2.0,79,0.00,,,0.00,weatherlink.com 1.10,2013-05-10 04:34:00,
2013-05-10 00:49:00,59.5,53.0,29.98,ESE,115,2.0,2.0,79,0.00,,,0.00,weatherlink.com 1.10,2013-05-10 04:49:00,
2013-05-10 01:04:00,59.3,53.0,29.98,SSE,149,0.0,1.0,80,0.00,,,0.00,weatherlink.com 1.10,2013-05-10 05:04:00,
2013-05-10 01:19:00,59.0,53.0,29.98,SSW,211,1.0,1.0,81,0.00,,,0.00,weatherlink.com 1.10,2013-05-10 05:19:00,
2013-05-10 01:34:00,58.5,53.0,29.99,SSE,163,1.0,2.0,81,0.00,,,0.00,weatherlink.com 1.10,2013-05-10 05:34:00,
2013-05-10 01:49:00,58.4,53.0,29.98,SE,141,0.0,1.0,83,0.00,,,0.00,weatherlink.com 1.10,2013-05-10 05:49:00,
2013-05-10 02:04:00,58.4,54.0,29.98,SSW,208,0.0,0.0,84,0.00,,,0.00,weatherlink.com 1.10,2013-05-10 06:04:00,
2013-05-10 02:19:00,58.6,54.0,29.98,West,276,0.0,0.0,84,0.00,,,0.00,weatherlink.com 1.10,2013-05-10 06:19:00,
2013-05-10 02:34:00,59.0,55.0,29.97,East,86,4.0,4.0,85,0.00,,,0.00,weatherlink.com 1.10,2013-05-10 06:34:00,
2013-05-10 02:49:00,58.2,52.0,29.97,East,82,2.0,3.0,81,0.00,,,0.00,weatherlink.com 1.10,2013-05-10 06:49:00,
2013-05-10 03:04:00,58.4,54.0,29.97,ESE,108,2.0,2.0,84,0.00,,,0.00,weatherlink.com 1.10,2013-05-10 07:04:00,
2013-05-10 03:20:00,58.1,53.0,29.96,ESE,103,0.0,1.0,84,0.00,,,0.00,weatherlink.com 1.10,2013-05-10 07:20:00,
2013-05-10 03:35:00,58.4,54.0,29.96,SSE,157,0.0,3.0,86,0.00,,,0.00,weatherlink.com 1.10,2013-05-10 07:35:00,
2013-05-10 03:50:00,58.1,54.0,29.96,SE,130,0.0,1.0,87,0.00,,,0.00,weatherlink.com 1.10,2013-05-10 07:50:00,
2013-05-10 04:05:00,57.7,54.0,29.95,SE,127,0.0,1.0,87,0.00,,,0.00,weatherlink.com 1.10,2013-05-10 08:05:00,
2013-05-10 04:20:00,57.4,54.0,29.95,SE,127,0.0,1.0,87,0.00,,,0.00,weatherlink.com 1.10,2013-05-10 08:20:00,
2013-05-10 04:35:00,57.5,54.0,29.94,SE,127,0.0,0.0,88,0.00,,,0.00,weatherlink.com 1.10,2013-05-10 08:35:00,
2013-05-10 04:50:00,57.2,53.0,29.94,East,94,1.0,1.0,87,0.00,,,0.00,weatherlink.com 1.10,2013-05-10 08:50:00,
2013-05-10 05:05:00,57.4,54.0,29.94,East,90,1.0,1.0,88,0.00,,,0.00,weatherlink.com 1.10,2013-05-10 09:05:00,
2013-05-10 05:20:00,57.3,54.0,29.94,East,91,0.0,0.0,88,0.00,,,0.00,weatherlink.com 1.10,2013-05-10 09:20:00,
2013-05-10 05:35:00,57.5,54.0,29.94,East,91,0.0,0.0,88,0.00,,,0.00,weatherlink.com 1.10,2013-05-10 09:35:00,
2013-05-10 05:50:00,57.8,54.0,29.93,East,91,0.0,0.0,88,0.00,,,0.00,weatherlink.com 1.10,2013-05-10 09:50:00,
2013-05-10 06:05:00,57.9,54.0,29.93,East,87,0.0,0.0,88,0.00,,,0.00,weatherlink.com 1.10,2013-05-10 10:05:00,
2013-05-10 06:20:00,57.9,54.0,29.93,East,90,2.0,2.0,88,0.00,,,0.00,weatherlink.com 1.10,2013-05-10 10:20:00,
2013-05-10 06:35:00,58.2,55.0,29.94,SE,126,1.0,2.0,88,0.00,,,0.00,weatherlink.com 1.10,2013-05-10 10:35:00,
2013-05-10 06:50:00,58.6,55.0,29.93,East,91,1.0,2.0,87,0.00,,,0.00,weatherlink.com 1.10,2013-05-10 10:50:00,
2013-05-10 07:05:00,59.1,55.0,29.94,East,94,1.0,2.0,87,0.00,,,0.00,weatherlink.com 1.10,2013-05-10 11:05:00,
2013-05-10 07:20:00,59.5,56.0,29.96,West,269,2.0,6.0,89,0.00,,,0.00,weatherlink.com 1.10,2013-05-10 11:20:00,
2013-05-10 07:35:00,61.1,57.0,29.97,West,281,0.0,6.0,85,0.00,,,0.00,weatherlink.com 1.10,2013-05-10 11:35:00,
2013-05-10 07:50:00,62.5,57.0,29.97,West,264,6.0,6.0,81,0.00,,,0.00,weatherlink.com 1.10,2013-05-10 11:50:00,
2013-05-10 08:05:00,62.1,57.0,29.96,West,278,3.0,7.0,83,0.03,,,0.03,weatherlink.com 1.10,2013-05-10 12:05:00,
2013-05-10 08:20:00,61.1,57.0,29.96,WSW,245,0.0,3.0,86,0.05,,,0.05,weatherlink.com 1.10,2013-05-10 12:20:00,
2013-05-10 08:35:00,60.8,58.0,29.95,SSE,150,0.0,2.0,89,0.05,,,0.05,weatherlink.com 1.10,2013-05-10 12:35:00,
2013-05-10 08:50:00,60.7,58.0,29.95,SW,221,3.0,3.0,91,0.06,,,0.06,weatherlink.com 1.10,2013-05-10 12:50:00,
2013-05-10 09:05:00,60.6,58.0,29.95,SSE,150,0.0,2.0,91,0.03,,,0.06,weatherlink.com 1.10,2013-05-10 13:05:00,
2013-05-10 09:20:00,61.4,59.0,29.95,SSE,163,4.0,6.0,90,0.01,,,0.06,weatherlink.com 1.10,2013-05-10 13:20:00,
2013-05-10 09:35:00,61.7,59.0,29.95,SSW,211,0.0,5.0,89,0.01,,,0.06,weatherlink.com 1.10,2013-05-10 13:35:00,
2013-05-10 09:50:00,61.6,58.0,29.94,NNW,344,0.0,4.0,89,0.00,,,0.06,weatherlink.com 1.10,2013-05-10 13:50:00,
2013-05-10 10:05:00,62.1,59.0,29.94,SE,129,3.0,11.0,88,0.01,,,0.07,weatherlink.com 1.10,2013-05-10 14:05:00,
2013-05-10 10:20:00,62.4,59.0,29.93,West,280,1.0,5.0,87,0.01,,,0.07,weatherlink.com 1.10,2013-05-10 14:20:00,
2013-05-10 10:35:00,63.0,59.0,29.94,SW,232,0.0,4.0,87,0.01,,,0.07,weatherlink.com 1.10,2013-05-10 14:35:00,
2013-05-10 10:50:00,63.6,59.0,29.93,SE,134,1.0,6.0,86,0.01,,,0.07,weatherlink.com 1.10,2013-05-10 14:50:00,
2013-05-10 11:05:00,65.0,59.0,29.93,East,98,2.0,7.0,82,0.00,,,0.07,weatherlink.com 1.10,2013-05-10 15:05:00,
2013-05-10 11:20:00,65.9,60.0,29.93,SE,140,9.0,12.0,80,0.00,,,0.07,weatherlink.com 1.10,2013-05-10 15:20:00,
2013-05-10 11:35:00,66.6,60.0,29.92,SW,227,4.0,14.0,79,0.00,,,0.07,weatherlink.com 1.10,2013-05-10 15:35:00,
2013-05-10 11:50:00,67.5,60.0,29.91,ESE,117,5.0,11.0,77,0.00,,,0.07,weatherlink.com 1.10,2013-05-10 15:50:00,
2013-05-10 12:06:00,68.6,60.0,29.91,WNW,295,3.0,8.0,75,0.00,,,0.07,weatherlink.com 1.10,2013-05-10 16:06:00,
2013-05-10 12:21:00,69.6,60.0,29.91,ENE,68,3.0,11.0,72,0.00,,,0.07,weatherlink.com 1.10,2013-05-10 16:21:00,
2013-05-10 12:36:00,70.3,60.0,29.90,ESE,113,6.0,12.0,70,0.00,,,0.07,weatherlink.com 1.10,2013-05-10 16:36:00,
2013-05-10 12:51:00,71.2,60.0,29.89,East,98,3.0,11.0,67,0.00,,,0.07,weatherlink.com 1.10,2013-05-10 16:51:00,
2013-05-10 13:06:00,72.0,60.0,29.89,West,276,2.0,10.0,66,0.00,,,0.07,weatherlink.com 1.10,2013-05-10 17:06:00,
2013-05-10 13:21:00,72.2,61.0,29.89,SE,146,4.0,10.0,67,0.00,,,0.07,weatherlink.com 1.10,2013-05-10 17:21:00,
2013-05-10 13:36:00,72.9,61.0,29.88,WSW,238,1.0,14.0,66,0.00,,,0.07,weatherlink.com 1.10,2013-05-10 17:36:00,
2013-05-10 13:51:00,73.6,61.0,29.88,WSW,242,2.0,10.0,65,0.00,,,0.07,weatherlink.com 1.10,2013-05-10 17:51:00,
2013-05-10 14:06:00,73.6,61.0,29.88,WSW,248,3.0,13.0,65,0.00,,,0.07,weatherlink.com 1.10,2013-05-10 18:06:00,
2013-05-10 14:21:00,73.9,61.0,29.87,West,262,7.0,15.0,65,0.00,,,0.07,weatherlink.com 1.10,2013-05-10 18:21:00,
2013-05-10 14:36:00,74.6,62.0,29.86,SSE,158,1.0,7.0,64,0.00,,,0.07,weatherlink.com 1.10,2013-05-10 18:36:00,
2013-05-10 14:51:00,75.1,62.0,29.84,West,262,1.0,9.0,63,0.00,,,0.07,weatherlink.com 1.10,2013-05-10 18:51:00,
2013-05-10 15:06:00,75.2,61.0,29.84,South,191,6.0,9.0,62,0.00,,,0.07,weatherlink.com 1.10,2013-05-10 19:06:00,
2013-05-10 15:21:00,75.5,61.0,29.83,South,187,0.0,8.0,62,0.00,,,0.07,weatherlink.com 1.10,2013-05-10 19:21:00,
2013-05-10 15:36:00,76.3,60.0,29.82,WSW,240,3.0,6.0,58,0.00,,,0.07,weatherlink.com 1.10,2013-05-10 19:36:00,
2013-05-10 15:51:00,76.2,61.0,29.82,West,270,3.0,5.0,60,0.00,,,0.07,weatherlink.com 1.10,2013-05-10 19:51:00,
2013-05-10 16:06:00,75.8,60.0,29.82,SSW,205,3.0,6.0,59,0.00,,,0.07,weatherlink.com 1.10,2013-05-10 20:06:00,
2013-05-10 16:21:00,71.3,58.0,29.84,WNW,295,10.0,22.0,63,0.01,,,0.08,weatherlink.com 1.10,2013-05-10 20:21:00,
2013-05-10 16:36:00,66.3,55.0,29.84,WNW,285,3.0,11.0,68,0.02,,,0.09,weatherlink.com 1.10,2013-05-10 20:36:00,
2013-05-10 16:51:00,65.0,57.0,29.84,WSW,238,2.0,4.0,75,0.02,,,0.09,weatherlink.com 1.10,2013-05-10 20:51:00,
2013-05-10 17:06:00,64.7,59.0,29.84,ESE,120,0.0,2.0,82,0.02,,,0.09,weatherlink.com 1.10,2013-05-10 21:06:00,
2013-05-10 17:21:00,64.9,60.0,29.85,SE,145,6.0,8.0,83,0.06,,,0.14,weatherlink.com 1.10,2013-05-10 21:21:00,
2013-05-10 17:36:00,65.5,60.0,29.86,West,273,6.0,11.0,81,0.06,,,0.15,weatherlink.com 1.10,2013-05-10 21:36:00,
2013-05-10 17:51:00,64.8,59.0,29.86,South,183,12.0,20.0,82,0.09,,,0.18,weatherlink.com 1.10,2013-05-10 21:51:00,
2013-05-10 18:06:00,64.0,60.0,29.87,WSW,239,5.0,16.0,85,0.15,,,0.24,weatherlink.com 1.10,2013-05-10 22:06:00,
2013-05-10 18:21:00,63.4,60.0,29.85,WNW,284,1.0,9.0,87,0.15,,,0.29,weatherlink.com 1.10,2013-05-10 22:21:00,
2013-05-10 18:36:00,63.0,59.0,29.85,SSE,162,2.0,7.0,88,0.14,,,0.29,weatherlink.com 1.10,2013-05-10 22:36:00,
2013-05-10 18:51:00,62.7,60.0,29.85,NW,306,1.0,8.0,89,0.11,,,0.29,weatherlink.com 1.10,2013-05-10 22:51:00,
2013-05-10 19:06:00,62.5,59.0,29.84,NW,315,1.0,5.0,89,0.05,,,0.29,weatherlink.com 1.10,2013-05-10 23:06:00,
2013-05-10 19:21:00,62.4,59.0,29.84,NW,305,2.0,6.0,89,0.00,,,0.29,weatherlink.com 1.10,2013-05-10 23:21:00,
2013-05-10 19:36:00,62.3,59.0,29.83,ENE,70,1.0,4.0,89,0.00,,,0.29,weatherlink.com 1.10,2013-05-10 23:36:00,
2013-05-10 19:51:00,62.2,59.0,29.83,West,265,1.0,2.0,89,0.00,,,0.29,weatherlink.com 1.10,2013-05-10 23:51:00,
2013-05-10 20:06:00,62.1,59.0,29.84,NW,306,2.0,4.0,90,0.00,,,0.29,weatherlink.com 1.10,2013-05-11 00:06:00,
2013-05-10 20:21:00,62.0,59.0,29.83,SSW,211,2.0,4.0,90,0.00,,,0.29,weatherlink.com 1.10,2013-05-11 00:21:00,
2013-05-10 20:36:00,62.0,59.0,29.82,West,271,1.0,4.0,90,0.00,,,0.29,weatherlink.com 1.10,2013-05-11 00:36:00,
2013-05-10 20:51:00,62.0,59.0,29.82,WNW,282,2.0,3.0,91,0.01,,,0.30,weatherlink.com 1.10,2013-05-11 00:51:00,
2013-05-10 21:06:00,61.9,59.0,29.82,WNW,294,3.0,4.0,91,0.02,,,0.31,weatherlink.com 1.10,2013-05-11 01:06:00,
2013-05-10 21:21:00,61.9,59.0,29.81,SW,224,0.0,4.0,91,0.03,,,0.32,weatherlink.com 1.10,2013-05-11 01:21:00,
2013-05-10 21:36:00,62.0,59.0,29.82,WNW,301,2.0,4.0,91,0.04,,,0.33,weatherlink.com 1.10,2013-05-11 01:36:00,
2013-05-10 21:51:00,61.9,59.0,29.82,WNW,290,2.0,4.0,91,0.04,,,0.34,weatherlink.com 1.10,2013-05-11 01:51:00,
2013-05-10 22:06:00,62.0,59.0,29.82,WNW,303,2.0,6.0,91,0.04,,,0.35,weatherlink.com 1.10,2013-05-11 02:06:00,
2013-05-10 22:21:00,62.0,59.0,29.81,SSE,148,1.0,6.0,91,0.04,,,0.36,weatherlink.com 1.10,2013-05-11 02:21:00,
2013-05-10 22:36:00,61.8,59.0,29.81,WSW,249,2.0,3.0,91,0.05,,,0.38,weatherlink.com 1.10,2013-05-11 02:36:00,
2013-05-10 22:52:00,61.7,59.0,29.80,WSW,246,2.0,4.0,92,0.06,,,0.40,weatherlink.com 1.10,2013-05-11 02:52:00,
2013-05-10 23:07:00,61.7,59.0,29.80,SE,136,2.0,6.0,92,0.05,,,0.40,weatherlink.com 1.10,2013-05-11 03:07:00,
2013-05-10 23:22:00,61.8,59.0,29.79,SSW,212,6.0,7.0,91,0.06,,,0.42,weatherlink.com 1.10,2013-05-11 03:22:00,
2013-05-10 23:37:00,61.7,59.0,29.79,West,260,0.0,5.0,92,0.08,,,0.00,weatherlink.com 1.10,2013-05-11 03:37:00,
2013-05-10 23:52:00,-999.0,-99.9,29.79,North,-999,-999.0,-999.0,-999,0.06,,,0.00,weatherlink.com 1.10,2013-05-11 03:52:00,